Latest Weather Observations for Wynyard

IDT60801

Issued at 11:05 pm EDT Saturday 1 November 2014 (issued every 30 minutes, with the page automatically refreshed every 10 minutes)

About weather observations | Map of weather stations | Latest weather observations for TAS | Other Formats
Station Details ID: 091107 Name: WYNYARD AIRPORT Lat: -41.00 Lon: 145.73 Height: 12.0 m
Data from the previous 72 hours. | See also: Recent months at Wynyard
Date/Time
EDT
Temp
°C
App
Temp
°C
Dew
Point
Rel
Hum
%
Delta-T
°C
Wind Press
QNH
hPa
Press
MSL
hPa
Rain
since 9 am
mm
Dir
 
Spd
km/h
Gust
km/h
Spd
kts
Gust
kts
01/11:00pm 5.5 -0.2 3.0 84 1.0 WSW 22 32 12 17 1006.4 1006.4 3.2
01/10:30pm 5.6 -1.5 3.4 86 0.9 WSW 30 39 16 21 1006.4 1006.4 3.2
01/10:00pm 5.7 -0.6 3.7 87 0.8 W 26 35 14 19 1006.1 1006.1 3.2
01/09:30pm 5.1 -0.1 3.6 90 0.6 W 20 28 11 15 1005.7 1005.7 3.2
01/09:00pm 5.6 -1.1 3.4 86 0.9 W 28 39 15 21 1005.4 1005.4 3.2
01/08:30pm 5.2 0.6 3.7 90 0.6 WSW 17 22 9 12 1004.9 1004.9 2.8
01/08:00pm 5.6 -1.1 3.6 87 0.8 WSW 28 41 15 22 1004.2 1004.2 2.8
01/07:44pm 6.0 -2.4 3.7 85 1.0 WSW 37 56 20 30 1004.1 1004.1 2.8
01/07:40pm 6.1 -1.4 4.6 90 0.6 WSW 33 56 18 30 1004.6 1004.6 2.4
01/07:30pm 5.4 -2.1 4.2 92 0.5 WSW 33 43 18 23 1004.0 1004.0 2.4
01/07:23pm 5.8 -5.8 3.8 87 0.8 WSW 54 78 29 42 1004.1 1004.1 2.2
01/07:21pm 6.2 -6.0 3.9 85 1.0 WSW 57 78 31 42 1004.1 1004.1 2.0
01/07:20pm 6.4 -0.7 3.7 83 1.1 WSW 30 69 16 37 1004.2 1004.2 1.8
01/07:00pm 6.8 0.0 5.0 88 0.8 WSW 30 43 16 23 1003.5 1003.5 1.8
01/06:56pm 7.3 0.4 4.4 82 1.3 WSW 30 43 16 23 1003.4 1003.4 1.4
01/06:38pm 7.2 -4.0 4.2 81 1.3 WSW 52 76 28 41 1003.0 1003.0 1.2
01/06:33pm 8.3 -1.6 2.5 67 2.4 WSW 44 70 24 38 1002.8 1002.8 1.2
01/06:30pm 8.9 -0.9 3.1 67 2.5 WSW 44 59 24 32 1002.6 1002.6 1.2
01/06:00pm 9.3 0.5 3.7 68 2.5 WSW 39 61 21 33 1002.3 1002.3 1.2
01/05:58pm 9.1 0.4 3.9 70 2.3 WSW 39 61 21 33 1002.3 1002.3 1.2
01/05:42pm 7.8 -3.0 4.0 77 1.6 WSW 50 78 27 42 1002.1 1002.1 1.0
01/05:30pm 10.0 0.2 2.1 58 3.3 WSW 43 63 23 34 1001.5 1001.5 1.0
01/05:00pm 10.4 2.2 4.5 67 2.7 WSW 37 59 20 32 1001.2 1001.2 1.0
01/04:52pm 10.1 3.0 5.7 74 2.0 WSW 32 50 17 27 1001.2 1001.2 1.0
01/04:38pm 9.3 2.5 6.7 84 1.2 W 32 44 17 24 1001.2 1001.2 1.0
01/04:35pm 9.5 2.7 7.9 90 0.8 WSW 33 52 18 28 1001.3 1001.3 1.0
01/04:30pm 9.0 1.4 7.5 90 0.7 WSW 37 52 20 28 1001.3 1001.3 1.0
01/04:25pm 7.6 0.0 5.6 87 0.9 WSW 35 44 19 24 1001.5 1001.5 1.0
01/04:18pm 7.5 -4.5 5.0 84 1.1 WSW 57 82 31 44 1001.6 1001.6 0.8
01/04:15pm 8.9 -1.9 4.3 73 2.0 WSW 50 76 27 41 1001.1 1001.1 0.6
01/04:08pm 11.0 2.6 3.5 60 3.3 WSW 37 56 20 30 1000.6 1000.6 0.6
01/04:00pm 11.9 3.4 5.1 63 3.1 WSW 39 54 21 29 1000.1 1000.1 0.6
01/03:31pm 10.5 0.4 3.5 62 3.1 SW 46 67 25 36 1000.2 1000.2 0.6
01/03:30pm 11.9 1.5 2.1 51 4.2 WSW 46 63 25 34 1000.1 1000.1 0.6
01/03:00pm 14.4 4.4 2.0 43 5.5 W 44 69 24 37 999.3 999.3 0.6
01/02:30pm 14.1 3.9 3.0 47 5.0 WSW 46 65 25 35 999.1 999.1 0.6
01/02:01pm 15.1 5.1 6.1 55 4.3 W 48 67 26 36 999.0 999.0 0.6
01/02:00pm 14.6 3.9 4.6 51 4.7 W 50 67 27 36 998.9 998.9 0.6
01/01:36pm 13.4 4.0 4.3 54 4.2 WSW 43 76 23 41 998.7 998.7 0.6
01/01:33pm 13.9 6.1 6.7 62 3.5 WSW 37 57 20 31 998.7 998.7 0.6
01/01:30pm 14.5 7.0 8.0 65 3.2 WSW 37 52 20 28 998.7 998.7 0.6
01/01:00pm 11.1 2.6 7.0 76 2.0 WSW 41 59 22 32 998.8 998.8 0.6
01/12:40pm 11.3 4.7 7.8 79 1.7 WSW 32 46 17 25 998.1 998.1 0.2
01/12:30pm 10.8 4.4 9.4 91 0.7 WSW 33 41 18 22 998.5 998.5 0.2
01/12:28pm 10.4 3.5 8.7 89 0.8 WSW 35 41 19 22 998.5 998.5 0.2
01/12:24pm 10.3 -1.0 8.1 86 1.1 WSW 57 82 31 44 998.4 998.4 0.2
01/12:22pm 10.3 -1.5 7.4 82 1.4 WSW 59 82 32 44 998.3 998.3 0.2
01/12:19pm 12.6 0.2 6.4 66 2.9 WSW 61 70 33 38 997.9 997.9 0.0
01/12:10pm 13.8 5.7 7.1 64 3.3 WSW 39 61 21 33 997.7 997.7 0.0
01/12:00pm 12.3 3.9 7.4 72 2.4 WSW 41 52 22 28 997.7 997.7 0.0
01/11:38am 13.0 4.3 7.7 70 2.6 WSW 43 50 23 27 997.7 997.7 0.0
01/11:33am 13.5 7.1 8.4 71 2.5 W 32 52 17 28 997.6 997.6 0.0
01/11:30am 14.5 8.4 9.7 73 2.5 W 32 44 17 24 997.5 997.5 0.0
01/11:00am 12.3 4.7 7.6 73 2.3 W 37 52 20 28 997.7 997.7 0.0
01/10:53am 12.9 6.0 7.1 68 2.8 W 33 52 18 28 997.6 997.6 0.0
01/10:30am 14.5 8.1 8.5 67 3.0 WSW 32 43 17 23 997.6 997.6 0.0
01/10:10am 13.4 6.9 8.0 70 2.7 WSW 32 63 17 34 997.4 997.4 0.0
01/10:00am 12.1 4.8 7.0 71 2.5 WSW 35 50 19 27 997.4 997.4 0.0
01/09:35am 13.1 5.7 6.9 66 3.0 WSW 35 54 19 29 997.0 997.0 0.0
01/09:30am 13.6 6.5 8.0 69 2.8 WSW 35 48 19 26 996.9 996.9 0.0
01/09:21am 12.9 7.0 7.4 69 2.7 W 28 46 15 25 996.8 996.8 0.0
01/09:00am 13.6 7.7 9.1 74 2.3 WSW 30 41 16 22 996.6 996.6 5.8
01/08:30am 11.8 6.2 8.6 81 1.6 W 28 39 15 21 996.5 996.5 5.8
01/08:00am 12.1 6.7 9.5 84 1.3 W 28 35 15 19 995.9 995.9 5.8
01/07:30am 11.3 6.0 9.7 90 0.8 WSW 28 39 15 21 995.5 995.5 5.8
01/07:00am 11.5 6.7 10.4 93 0.6 W 26 41 14 22 995.2 995.2 5.8
01/06:30am 11.6 7.4 11.0 96 0.3 WSW 24 30 13 16 994.3 994.3 5.8
01/06:06am 11.9 7.8 11.3 96 0.3 W 24 33 13 18 993.9 993.9 5.8
01/06:00am 12.0 7.2 11.5 97 0.3 W 28 43 15 23 994.0 994.0 5.8
01/05:53am 12.0 7.2 11.8 99 0.1 W 28 43 15 23 993.9 993.9 5.8
01/05:35am 12.2 10.0 12.0 99 0.1 NW 15 22 8 12 994.0 994.0 5.6
01/05:30am 12.2 10.7 12.0 99 0.1 NW 11 15 6 8 993.8 993.8 5.6
01/05:19am 12.2 10.4 12.0 99 0.1 WNW 13 20 7 11 993.8 993.8 5.6
01/05:00am 12.2 9.6 12.0 99 0.1 WNW 17 22 9 12 994.0 994.0 5.6
01/04:30am 12.3 10.1 12.1 99 0.1 WNW 15 19 8 10 994.3 994.3 4.8
01/04:00am 12.7 11.0 12.5 99 0.1 WNW 13 17 7 9 994.0 994.0 3.4
01/03:30am 12.9 10.9 12.7 99 0.1 WSW 15 17 8 9 993.6 993.6 2.4
01/03:00am 13.2 11.7 13.0 99 0.1 WSW 13 19 7 10 994.0 994.0 1.8
01/02:30am 13.2 11.3 13.0 99 0.1 WSW 15 17 8 9 994.5 994.5 1.4
01/02:00am 13.2 10.9 13.0 99 0.1 WSW 17 19 9 10 995.6 995.6 0.6
01/01:30am 12.9 12.6 12.7 99 0.1 WNW 6 9 3 5 994.7 994.7 0.6
01/01:00am 12.5 10.8 12.3 99 0.1 WSW 13 17 7 9 995.0 995.0 0.6
01/12:30am 12.8 11.9 12.6 99 0.1 NW 9 13 5 7 995.1 995.1 0.6
01/12:00am 12.5 13.2 12.3 99 0.1 CALM 0 6 0 3 995.0 995.0 0.6
 
Date/Time
EDT
Temp
°C
App
Temp
°C
Dew
Point
Rel
Hum
%
Delta-T
°C
Wind Press
QNH
hPa
Press
MSL
hPa
Rain
since 9 am
mm
Dir
 
Spd
km/h
Gust
km/h
Spd
kts
Gust
kts
31/11:30pm 12.7 11.8 12.5 99 0.1 WSW 9 11 5 6 996.5 996.5 0.6
31/11:00pm 12.9 12.4 12.7 99 0.1 SSW 7 9 4 5 996.8 996.8 0.6
31/10:30pm 13.1 12.3 12.9 99 0.1 SSW 9 13 5 7 996.9 996.9 0.6
31/10:00pm 13.3 12.2 13.1 99 0.1 SE 11 13 6 7 997.3 997.3 0.6
31/09:33pm 13.3 11.7 12.8 97 0.3 SE 13 19 7 10 997.7 997.7 0.6
31/09:30pm 13.3 11.7 12.8 97 0.3 SE 13 19 7 10 997.7 997.7 0.6
31/09:00pm 13.5 11.6 12.9 96 0.3 SSE 15 22 8 12 998.3 998.3 0.6
31/08:30pm 13.3 10.1 13.1 99 0.1 E 22 32 12 17 998.5 998.5 0.6
31/08:00pm 13.4 11.1 13.1 98 0.2 ENE 17 22 9 12 999.0 999.0 0.6
31/07:30pm 13.5 10.6 12.9 96 0.3 E 20 28 11 15 999.4 999.4 0.6
31/07:00pm 13.6 11.3 13.0 96 0.3 E 17 24 9 13 1000.0 1000.0 0.6
31/06:30pm 13.6 10.6 12.7 94 0.5 ENE 20 32 11 17 1000.0 1000.0 0.6
31/06:00pm 13.9 11.5 12.8 93 0.6 ENE 17 28 9 15 1000.5 1000.5 0.6
31/05:30pm 14.1 11.7 12.8 92 0.7 ENE 17 26 9 14 1001.0 1001.0 0.6
31/05:00pm 14.3 10.8 12.3 88 1.1 E 22 28 12 15 1001.3 1001.3 0.6
31/04:30pm 15.1 11.9 13.1 88 1.1 E 22 30 12 16 1001.5 1001.5 0.6
31/04:00pm 14.3 12.1 13.2 93 0.6 E 17 24 9 13 1002.6 1002.6 0.6
31/03:48pm 14.0 12.0 12.6 91 0.8 ENE 15 19 8 10 1002.8 1002.8 0.6
31/03:30pm 14.4 12.4 12.6 89 1.0 ENE 15 20 8 11 1003.0 1003.0 0.6
31/03:27pm 14.4 12.7 12.6 89 1.0 ENE 13 19 7 10 1003.2 1003.2 0.6
31/03:00pm 14.8 13.4 12.1 84 1.5 ENE 11 17 6 9 1004.0 1004.0 0.6
31/02:36pm 15.3 14.8 13.7 90 0.9 NE 9 15 5 8 1004.5 1004.5 0.6
31/02:30pm 15.6 14.9 14.3 92 0.7 NE 11 15 6 8 1004.4 1004.4 0.6
31/02:00pm 14.9 13.1 13.3 90 0.9 NNE 15 19 8 10 1004.7 1004.7 0.6
31/01:50pm 15.7 14.4 14.9 95 0.5 NNE 15 19 8 10 1004.9 1004.9 0.6
31/01:35pm 15.1 13.5 14.0 93 0.6 NNE 15 19 8 10 1004.9 1004.9 0.6
31/01:31pm 15.2 13.8 14.4 95 0.5 NNE 15 19 8 10 1004.9 1004.9 0.6
31/01:30pm 14.9 13.1 13.4 91 0.8 NNE 15 19 8 10 1004.9 1004.9 0.6
31/01:00pm 14.8 13.7 14.3 97 0.3 NE 13 17 7 9 1005.2 1005.2 0.6
31/12:30pm 14.3 13.3 13.3 94 0.6 NNE 11 15 6 8 1005.7 1005.7 0.6
31/12:00pm 13.8 12.6 12.7 93 0.6 N 11 15 6 8 1006.4 1006.4 0.6
31/11:30am 13.8 12.3 13.2 96 0.3 N 13 17 7 9 1006.5 1006.5 0.6
31/11:00am 13.4 13.6 13.1 98 0.2 N 4 9 2 5 1007.1 1007.1 0.6
31/10:30am 12.7 12.1 12.2 97 0.3 NW 7 13 4 7 1007.4 1007.4 0.6
31/10:09am 12.6 10.7 11.8 95 0.4 NW 13 19 7 10 1007.8 1007.8 0.2
31/10:00am 12.7 11.3 12.1 96 0.3 NW 11 17 6 9 1007.7 1007.7 0.2
31/09:30am 12.5 12.0 12.2 98 0.2 WNW 6 9 3 5 1007.7 1007.7 0.2
31/09:00am 12.1 12.3 11.8 98 0.2 N 2 7 1 4 1008.0 1008.0 0.6
31/08:30am 11.2 10.2 11.0 99 0.1 SE 7 9 4 5 1007.9 1007.9 0.4
31/08:00am 11.1 11.4 10.9 99 0.1 CALM 0 4 0 2 1008.2 1008.2 0.2
31/07:30am 10.9 10.0 10.7 99 0.1 WSW 6 7 3 4 1008.5 1008.5 0.2
31/07:00am 10.3 9.2 10.1 99 0.1 SSE 6 7 3 4 1008.1 1008.1 0.2
31/06:30am 10.2 10.3 10.0 99 0.1 CALM 0 0 0 0 1008.3 1008.3 0.2
31/06:00am 10.3 9.2 10.1 99 0.1 S 6 7 3 4 1008.4 1008.4 0.2
31/05:30am 10.8 10.3 10.6 99 0.1 WNW 4 7 2 4 1008.4 1008.4 0.2
31/05:00am 10.9 9.1 10.7 99 0.1 W 11 17 6 9 1008.5 1008.5 0.2
31/04:30am 10.1 10.2 10.1 100 0.0 CALM 0 0 0 0 1008.7 1008.7 0.2
31/04:00am 9.7 8.9 9.7 100 0.0 S 4 6 2 3 1008.9 1008.9 0.2
31/03:30am 9.7 8.3 9.6 99 0.0 SW 7 13 4 7 1009.3 1009.3 0.2
31/03:00am 9.6 8.2 9.5 99 0.0 W 7 9 4 5 1009.3 1009.3 0.2
31/02:30am 10.3 8.3 10.1 99 0.1 W 11 15 6 8 1009.6 1009.6 0.2
31/02:00am 10.5 7.4 10.3 99 0.1 W 17 22 9 12 1010.0 1010.0 0.2
31/01:30am 10.8 8.2 10.6 99 0.1 W 15 19 8 10 1010.4 1010.4 0.2
31/01:28am 10.8 8.2 10.6 99 0.1 W 15 19 8 10 1010.4 1010.4 0.2
31/01:23am 10.9 8.3 10.7 99 0.1 W 15 19 8 10 1010.6 1010.6 0.2
31/01:11am 11.1 8.6 10.9 99 0.1 WNW 15 20 8 11 1010.8 1010.8 0.2
31/01:00am 10.8 9.3 10.6 99 0.1 NW 9 15 5 8 1010.9 1011.0 0.2
31/12:52am 9.0 8.4 8.9 99 0.0 WSW 2 7 1 4 1011.0 1011.1 0.2
31/12:30am 9.3 8.0 9.2 99 0.0 SW 6 7 3 4 1011.2 1011.3 0.2
31/12:00am 8.9 7.3 8.8 99 0.0 WSW 7 9 4 5 1011.2 1011.3 0.2
 
Date/Time
EDT
Temp
°C
App
Temp
°C
Dew
Point
Rel
Hum
%
Delta-T
°C
Wind Press
QNH
hPa
Press
MSL
hPa
Rain
since 9 am
mm
Dir
 
Spd
km/h
Gust
km/h
Spd
kts
Gust
kts
30/11:30pm 9.7 7.9 9.4 98 0.1 WSW 9 13 5 7 1011.2 1011.3 0.2
30/11:00pm 11.0 8.6 9.9 93 0.6 W 13 15 7 8 1011.2 1011.3 0.2
30/10:30pm 11.6 9.3 10.3 92 0.7 WNW 13 15 7 8 1011.5 1011.6 0.2
30/10:00pm 12.1 9.1 10.8 92 0.7 NW 17 20 9 11 1011.7 1011.8 0.2
30/09:30pm 11.6 8.9 10.2 91 0.7 WNW 15 19 8 10 1011.7 1011.8 0.2
30/09:00pm 11.8 9.4 10.0 89 0.9 WNW 13 15 7 8 1011.3 1011.4 0.2
30/08:30pm 12.5 10.2 10.4 87 1.1 W 13 19 7 10 1010.9 1011.0 0.2
30/08:00pm 12.6 9.4 10.1 85 1.3 WSW 17 22 9 12 1010.8 1010.8 0.2
30/07:30pm 13.5 9.7 9.9 79 1.9 W 20 28 11 15 1010.7 1010.7 0.2
30/07:00pm 14.0 9.9 10.0 77 2.1 W 22 32 12 17 1010.4 1010.4 0.2
30/06:30pm 14.7 9.4 9.7 72 2.6 WSW 28 35 15 19 1010.2 1010.2 0.2
30/06:00pm 14.8 10.0 10.2 74 2.4 WSW 26 35 14 19 1010.0 1010.0 0.2
30/05:30pm 16.0 9.2 9.4 65 3.4 W 35 48 19 26 1009.9 1009.9 0.2
30/05:00pm 15.8 9.7 9.7 67 3.2 W 32 41 17 22 1009.9 1009.9 0.2
30/04:36pm 16.4 10.6 9.6 64 3.5 W 30 48 16 26 1009.8 1009.8 0.2
30/04:30pm 16.9 12.3 11.2 69 3.1 W 26 37 14 20 1009.8 1009.8 0.2
30/04:18pm 15.5 10.0 11.9 79 2.0 W 32 50 17 27 1010.0 1010.0 0.2
30/04:00pm 15.7 9.0 9.6 67 3.2 W 35 50 19 27 1009.9 1009.9 0.2
30/03:30pm 17.1 11.5 11.4 69 3.1 W 32 43 17 23 1009.8 1009.8 0.2
30/03:08pm 16.3 9.7 9.9 66 3.4 W 35 54 19 29 1009.8 1009.8 0.2
30/03:00pm 15.8 10.1 11.0 73 2.6 W 32 48 17 26 1009.9 1009.9 0.2
30/02:57pm 15.7 10.4 10.0 69 3.0 W 28 48 15 26 1009.9 1009.9 0.2
30/02:30pm 17.1 11.7 10.9 67 3.3 WNW 30 41 16 22 1009.6 1009.6 0.0
30/02:00pm 17.3 10.8 10.2 63 3.8 W 35 44 19 24 1010.1 1010.1 0.0
30/01:42pm 16.1 10.9 10.2 68 3.1 W 28 46 15 25 1009.9 1009.9 0.0
30/01:30pm 16.7 11.3 11.0 69 3.1 W 30 43 16 23 1009.9 1009.9 0.0
30/01:19pm 16.7 11.8 11.2 70 3.0 W 28 46 15 25 1009.9 1009.9 0.0
30/01:00pm 16.6 11.2 10.9 69 3.1 WSW 30 39 16 21 1009.9 1009.9 0.0
30/12:30pm 16.9 12.8 11.4 70 3.0 WNW 24 33 13 18 1009.9 1009.9 0.0
30/12:00pm 16.4 11.6 11.8 74 2.5 WNW 28 37 15 20 1010.3 1010.3 0.0
30/11:30am 16.0 10.3 11.0 72 2.7 W 32 44 17 24 1010.3 1010.3 0.0
30/11:00am 15.9 11.7 12.5 80 1.9 WSW 26 37 14 20 1010.7 1010.7 0.0
30/10:30am 15.3 10.5 11.7 79 1.9 WNW 28 39 15 21 1010.7 1010.7 0.0
30/10:17am 14.9 11.6 13.9 94 0.6 W 24 37 13 20 1010.8 1010.8 0.0
30/10:00am 13.1 8.7 12.8 98 0.2 W 28 37 15 20 1011.1 1011.2 0.0
30/09:56am 13.1 8.3 11.8 92 0.7 W 28 39 15 21 1011.0 1011.1 0.0
30/09:42am 14.9 11.2 11.5 80 1.8 W 22 32 12 17 1010.9 1011.0 0.0
30/09:32am 14.3 11.1 12.0 86 1.2 W 20 24 11 13 1010.9 1011.0 0.0
30/09:30am 14.0 10.9 12.2 89 1.0 W 20 24 11 13 1011.0 1011.1 0.0
30/09:15am 12.6 8.1 11.5 93 0.6 WNW 26 32 14 17 1011.0 1011.1 0.0
30/09:00am 13.3 9.6 11.5 89 1.0 W 22 30 12 16 1011.1 1011.2 0.2
30/08:30am 12.7 8.9 11.1 90 0.8 WNW 22 32 12 17 1011.0 1011.1 0.2
30/08:29am 12.8 9.1 11.4 91 0.7 WNW 22 35 12 19 1011.0 1011.1 0.2
30/08:00am 12.6 9.6 10.8 89 0.9 WNW 17 24 9 13 1010.7 1010.7 0.2
30/07:30am 11.3 8.3 10.8 97 0.3 WNW 17 20 9 11 1010.8 1010.8 0.2
30/07:00am 10.8 7.3 10.2 96 0.3 WNW 19 20 10 11 1010.8 1010.8 0.2
30/06:30am 10.2 7.0 9.9 98 0.2 WNW 17 20 9 11 1010.4 1010.4 0.2
30/06:00am 10.1 7.3 9.9 99 0.1 WNW 15 19 8 10 1010.3 1010.3 0.2
30/05:30am 9.4 7.2 9.3 99 0.0 WNW 11 15 6 8 1010.1 1010.1 0.2
30/05:00am 8.1 5.2 8.0 99 0.0 W 13 15 7 8 1010.1 1010.1 0.2
30/04:30am 9.2 6.9 9.1 99 0.0 WNW 11 15 6 8 1009.9 1009.9 0.2
30/04:00am 10.4 7.5 9.8 96 0.3 WNW 15 19 8 10 1010.3 1010.3 0.2
30/03:30am 9.9 6.5 9.3 96 0.3 W 17 22 9 12 1010.5 1010.5 0.2
30/03:00am 10.6 7.3 9.7 94 0.5 W 17 20 9 11 1010.5 1010.5 0.2
30/02:30am 10.1 6.7 9.2 94 0.4 W 17 20 9 11 1010.5 1010.5 0.2
30/02:00am 10.5 5.4 9.1 91 0.7 WSW 26 37 14 20 1010.7 1010.7 0.2
30/01:41am 10.6 4.8 9.4 92 0.6 W 30 41 16 22 1010.7 1010.7 0.2
30/01:30am 10.5 6.1 10.3 99 0.1 W 24 32 13 17 1010.7 1010.7 0.2
30/01:21am 11.1 6.8 10.6 97 0.3 WNW 24 32 13 17 1010.7 1010.7 0.2
30/01:00am 11.3 7.1 9.6 89 0.9 W 22 30 12 16 1011.1 1011.2 0.2
30/12:30am 11.5 7.8 9.6 88 1.0 W 19 26 10 14 1011.2 1011.3 0.2
30/12:00am 11.4 7.1 9.5 88 1.0 W 22 28 12 15 1011.3 1011.4 0.2
 
Date/Time
EDT
Temp
°C
App
Temp
°C
Dew
Point
Rel
Hum
%
Delta-T
°C
Wind Press
QNH
hPa
Press
MSL
hPa
Rain
since 9 am
mm
Dir
 
Spd
km/h
Gust
km/h
Spd
kts
Gust
kts
29/11:30pm 11.3 7.9 10.5 95 0.4 W 19 26 10 14 1011.5 1011.6 0.2

Other Formats:

Comma delimited format used in spreadsheet applications
http://www.bom.gov.au/fwo/IDT60801/IDT60801.95957.axf

JavaScript Object Notation format (JSON) in row-major order
http://www.bom.gov.au/fwo/IDT60801/IDT60801.95957.json